createdAt,value
2023-05-07T00:02:36.527Z,95260.22
2023-05-07T00:06:21.173Z,95262.66
2023-05-07T00:10:03.997Z,95257.59
2023-05-07T00:13:46.881Z,95264.72
2023-05-07T00:17:29.599Z,95266.56
2023-05-07T00:21:12.982Z,95258.28
2023-05-07T00:24:57.123Z,95265.88
2023-05-07T00:28:40.320Z,95270.00
2023-05-07T00:32:23.084Z,95257.78
2023-05-07T00:36:06.441Z,95257.88
2023-05-07T00:39:49.065Z,95241.28
2023-05-07T00:43:33.089Z,95252.34
2023-05-07T00:47:16.447Z,95257.63
2023-05-07T00:50:59.270Z,95265.09
2023-05-07T00:54:43.483Z,95247.16
2023-05-07T00:58:26.200Z,95262.09
2023-05-07T01:02:10.388Z,95262.09
2023-05-07T01:05:53.309Z,95271.53
2023-05-07T01:09:37.253Z,95262.53
2023-05-07T01:13:20.119Z,95263.94
2023-05-07T01:17:02.958Z,95263.03
2023-05-07T01:20:47.359Z,95253.59
2023-05-07T01:24:32.256Z,95253.94
2023-05-07T01:28:14.964Z,95257.63
2023-05-07T01:31:59.745Z,95249.47
2023-05-07T01:35:47.893Z,95249.91
2023-05-07T01:39:32.461Z,95246.00
2023-05-07T01:43:15.349Z,95245.16
2023-05-07T01:46:59.177Z,95237.78
2023-05-07T01:50:41.870Z,95241.38
2023-05-07T01:54:28.619Z,95233.56
2023-05-07T01:58:15.289Z,95245.63
2023-05-07T02:01:58.102Z,95242.53
2023-05-07T02:05:40.808Z,95241.63
2023-05-07T02:09:23.966Z,95249.69
2023-05-07T02:13:17.374Z,95250.03
2023-05-07T02:17:00.148Z,95244.97
2023-05-07T02:20:42.802Z,95248.88
2023-05-07T02:24:25.490Z,95251.28
2023-05-07T02:28:08.187Z,95254.38
2023-05-07T02:31:53.928Z,95249.56
2023-05-07T02:35:36.705Z,95255.28
2023-05-07T02:39:19.367Z,95244.13
2023-05-07T02:43:02.058Z,95252.31
2023-05-07T02:46:44.711Z,95245.63
2023-05-07T02:50:28.800Z,95248.16
2023-05-07T02:54:12.601Z,95253.66
2023-05-07T02:57:55.331Z,95254.69
2023-05-07T03:01:38.016Z,95241.69
2023-05-07T03:05:20.973Z,95247.00
2023-05-07T03:09:05.266Z,95239.50
2023-05-07T03:12:47.934Z,95245.22
2023-05-07T03:16:31.119Z,95237.97
2023-05-07T03:20:14.303Z,95239.22
2023-05-07T03:23:57.861Z,95234.38
2023-05-07T03:27:42.841Z,95233.22
2023-05-07T03:31:25.702Z,95229.41
2023-05-07T03:35:08.822Z,95238.69
2023-05-07T03:38:53.255Z,95239.59
2023-05-07T03:42:36.157Z,95237.84
2023-05-07T03:46:20.243Z,95236.81
2023-05-07T03:50:02.998Z,95249.44
2023-05-07T03:53:45.611Z,95237.03
2023-05-07T03:57:28.259Z,95234.63
2023-05-07T04:01:11.000Z,95241.75
2023-05-07T04:04:55.504Z,95251.94
2023-05-07T04:08:38.154Z,95253.44
2023-05-07T04:12:20.862Z,95257.09
2023-05-07T04:16:04.821Z,95256.06
2023-05-07T04:19:47.849Z,95263.19
2023-05-07T04:23:31.986Z,95264.44
2023-05-07T04:27:14.611Z,95259.44
2023-05-07T04:30:57.292Z,95259.44
2023-05-07T04:34:39.949Z,95267.94
2023-05-07T04:38:24.526Z,95264.50
2023-05-07T04:42:09.832Z,95269.56
2023-05-07T04:45:53.092Z,95265.47
2023-05-07T04:49:35.908Z,95271.56
2023-05-07T04:53:18.775Z,95267.94
2023-05-07T04:57:01.481Z,95274.41
2023-05-07T05:00:45.518Z,95273.53
2023-05-07T05:04:28.364Z,95281.59
2023-05-07T05:08:11.218Z,95280.78
2023-05-07T05:11:53.881Z,95286.28
2023-05-07T05:15:36.622Z,95280.34
2023-05-07T05:19:20.768Z,95276.00
2023-05-07T05:23:03.729Z,95265.56
2023-05-07T05:26:46.452Z,95280.53
2023-05-07T05:30:29.151Z,95273.78
2023-05-07T05:34:11.854Z,95275.16
2023-05-07T05:37:55.838Z,95283.66
2023-05-07T05:41:38.518Z,95279.91
2023-05-07T05:45:21.252Z,95278.94
2023-05-07T05:49:03.912Z,95283.69
2023-05-07T05:52:46.561Z,95288.63
2023-05-07T05:56:31.097Z,95277.72
2023-05-07T06:00:14.886Z,95282.25
2023-05-07T06:03:58.151Z,95281.44
2023-05-07T06:07:40.860Z,95278.53
2023-05-07T06:11:23.615Z,95279.22
2023-05-07T06:15:08.801Z,95279.44
2023-05-07T06:18:51.471Z,95280.72
2023-05-07T06:22:34.216Z,95278.75
2023-05-07T06:26:16.834Z,95273.09
2023-05-07T06:29:59.490Z,95272.28
2023-05-07T06:33:43.804Z,95279.91
2023-05-07T06:37:26.817Z,95289.69
2023-05-07T06:41:09.569Z,95295.75
2023-05-07T06:44:52.237Z,95290.44
2023-05-07T06:48:34.934Z,95289.03
2023-05-07T06:52:18.966Z,95287.44
2023-05-07T06:56:01.618Z,95289.22
2023-05-07T06:59:44.294Z,95291.25
2023-05-07T07:03:27.064Z,95289.59
2023-05-07T07:07:09.823Z,95291.38
2023-05-07T07:10:53.898Z,95302.19
2023-05-07T07:14:36.871Z,95297.63
2023-05-07T07:18:19.546Z,95286.94
2023-05-07T07:22:02.187Z,95287.09
2023-05-07T07:25:44.890Z,95289.13
2023-05-07T07:29:28.948Z,95291.41
2023-05-07T07:33:14.402Z,95294.22
2023-05-07T07:36:57.232Z,95300.75
2023-05-07T07:40:39.915Z,95297.44
2023-05-07T07:44:22.634Z,95294.59
2023-05-07T07:48:07.360Z,95295.78
2023-05-07T07:51:50.125Z,95303.09
2023-05-07T07:55:33.209Z,95299.75
2023-05-07T07:59:19.632Z,95299.34
2023-05-07T08:03:04.176Z,95313.09
2023-05-07T08:06:48.390Z,95298.56
2023-05-07T08:10:35.301Z,95291.28
2023-05-07T08:14:18.109Z,95294.59
2023-05-07T08:18:01.385Z,95299.25
2023-05-07T08:21:44.100Z,95304.38
2023-05-07T08:25:28.356Z,95314.00
2023-05-07T08:29:11.107Z,95294.94
2023-05-07T08:32:53.845Z,95307.78
2023-05-07T08:36:36.561Z,95309.47
2023-05-07T08:40:19.617Z,95315.94
2023-05-07T08:44:05.569Z,95308.59
2023-05-07T08:47:49.564Z,95312.09
2023-05-07T08:51:32.371Z,95307.06
2023-05-07T08:55:16.104Z,95318.34
2023-05-07T08:58:59.870Z,95314.41
2023-05-07T09:02:44.144Z,95317.09
2023-05-07T09:06:27.673Z,95309.94
2023-05-07T09:10:11.306Z,95317.47
2023-05-07T09:13:56.500Z,95310.34
2023-05-07T09:17:39.315Z,95317.63
2023-05-07T09:21:23.911Z,95308.63
2023-05-07T09:25:08.039Z,95297.75
2023-05-07T09:28:50.773Z,95295.94
2023-05-07T09:32:36.676Z,95296.00
2023-05-07T09:36:20.183Z,95292.34
2023-05-07T09:40:07.806Z,95297.72
2023-05-07T09:43:55.987Z,95294.53
2023-05-07T09:47:39.572Z,95297.22
2023-05-07T09:51:31.107Z,95291.38
2023-05-07T09:55:15.525Z,95293.00
2023-05-07T09:58:59.858Z,95303.44
2023-05-07T10:02:47.543Z,95299.97
2023-05-07T10:06:31.296Z,95299.72
2023-05-07T10:10:16.498Z,95292.56
2023-05-07T10:13:59.456Z,95300.03
2023-05-07T10:17:42.674Z,95302.69
2023-05-07T10:21:25.995Z,95295.22
2023-05-07T10:25:12.947Z,95298.72
2023-05-07T10:29:01.954Z,95295.75
2023-05-07T10:32:47.352Z,95296.28
2023-05-07T10:36:30.236Z,95295.22
2023-05-07T10:40:14.936Z,95301.09
2023-05-07T10:44:02.257Z,95294.13
2023-05-07T10:48:27.171Z,95293.03
2023-05-07T10:52:15.871Z,95289.81
2023-05-07T10:56:26.884Z,95299.97
2023-05-07T11:00:52.264Z,95289.25
2023-05-07T11:04:36.661Z,95291.41
2023-05-07T11:08:19.608Z,95290.88
2023-05-07T11:12:02.334Z,95291.38
2023-05-07T11:15:46.895Z,95292.97
2023-05-07T11:19:53.553Z,95291.31
2023-05-07T11:24:01.371Z,95284.31
2023-05-07T11:27:44.289Z,95292.84
2023-05-07T11:31:29.404Z,95288.53
2023-05-07T11:35:13.800Z,95284.16
2023-05-07T11:38:57.107Z,95282.81
2023-05-07T11:42:43.889Z,95282.00
2023-05-07T11:46:27.256Z,95269.75
2023-05-07T11:50:11.617Z,95280.41
2023-05-07T11:53:55.982Z,95276.81
2023-05-07T11:57:38.738Z,95278.34
2023-05-07T12:01:21.521Z,95274.22
2023-05-07T12:05:06.494Z,95274.63
2023-05-07T12:08:49.341Z,95271.91
2023-05-07T12:12:33.588Z,95276.13
2023-05-07T12:16:19.235Z,95268.03
2023-05-07T12:20:05.801Z,95270.09
2023-05-07T12:23:48.966Z,95250.16
2023-05-07T12:27:33.257Z,95255.41
2023-05-07T12:31:16.795Z,95256.44
2023-05-07T12:34:59.707Z,95246.75
2023-05-07T12:38:42.701Z,95254.16
2023-05-07T12:42:27.285Z,95247.19
2023-05-07T12:46:11.777Z,95239.09
2023-05-07T12:49:56.630Z,95238.19
2023-05-07T12:53:44.628Z,95239.44
2023-05-07T12:57:27.629Z,95226.22
2023-05-07T13:01:16.558Z,95233.38
2023-05-07T13:05:06.540Z,95235.78
2023-05-07T13:08:49.439Z,95238.03
2023-05-07T13:12:32.282Z,95239.34
2023-05-07T13:16:22.410Z,95238.75
2023-05-07T13:20:06.582Z,95247.06
2023-05-07T13:23:49.264Z,95241.38
2023-05-07T13:27:32.089Z,95245.28
2023-05-07T13:31:16.169Z,95244.31
2023-05-07T13:34:58.865Z,95242.81
2023-05-07T13:38:41.661Z,95245.81
2023-05-07T13:42:24.408Z,95239.34
2023-05-07T13:46:07.210Z,95250.34
2023-05-07T13:49:51.553Z,95244.59
2023-05-07T13:53:34.381Z,95244.34
2023-05-07T13:57:17.173Z,95240.69
2023-05-07T14:00:59.868Z,95240.59
2023-05-07T14:04:42.657Z,95237.94
2023-05-07T14:08:26.704Z,95239.47
2023-05-07T14:12:09.630Z,95230.00
2023-05-07T14:15:52.369Z,95235.19
2023-05-07T14:19:35.004Z,95239.38
2023-05-07T14:23:18.687Z,95239.09
2023-05-07T14:27:02.742Z,95239.91
2023-05-07T14:30:45.773Z,95238.38
2023-05-07T14:34:28.526Z,95232.00
2023-05-07T14:38:11.170Z,95231.75
2023-05-07T14:41:55.631Z,95227.78
2023-05-07T14:45:39.771Z,95236.78
2023-05-07T14:49:22.543Z,95239.53
2023-05-07T14:53:05.325Z,95235.66
2023-05-07T14:56:48.028Z,95234.69
2023-05-07T15:00:30.743Z,95224.72
2023-05-07T15:04:14.922Z,95238.69
2023-05-07T15:07:57.830Z,95242.97
2023-05-07T15:11:40.726Z,95244.47
2023-05-07T15:15:23.378Z,95236.22
2023-05-07T15:19:06.110Z,95242.97
2023-05-07T15:22:50.084Z,95235.22
2023-05-07T15:26:32.719Z,95234.41
2023-05-07T15:30:16.188Z,95227.13
2023-05-07T15:33:58.832Z,95232.13
2023-05-07T15:37:41.462Z,95233.69
2023-05-07T15:41:26.794Z,95230.59
2023-05-07T15:45:11.895Z,95233.09
2023-05-07T15:48:55.239Z,95236.91
2023-05-07T15:52:39.081Z,95227.63
2023-05-07T15:56:21.742Z,95235.69
2023-05-07T16:00:09.477Z,95230.69
2023-05-07T16:03:52.260Z,95231.84
2023-05-07T16:07:34.963Z,95223.91
2023-05-07T16:11:20.303Z,95228.78
2023-05-07T16:15:03.184Z,95220.81
2023-05-07T16:18:47.241Z,95221.91
2023-05-07T16:22:30.252Z,95225.63
2023-05-07T16:26:14.509Z,95221.94
2023-05-07T16:29:58.327Z,95213.91
2023-05-07T16:33:41.114Z,95222.69
2023-05-07T16:37:25.139Z,95220.31
2023-05-07T16:41:07.894Z,95224.59
2023-05-07T16:44:50.526Z,95220.88
2023-05-07T16:48:33.174Z,95214.22
2023-05-07T16:52:15.881Z,95221.44
2023-05-07T16:55:59.978Z,95225.72
2023-05-07T16:59:42.759Z,95224.69
2023-05-07T17:03:25.660Z,95238.56
2023-05-07T17:07:08.415Z,95234.31
2023-05-07T17:10:51.073Z,95229.47
2023-05-07T17:14:35.156Z,95236.41
2023-05-07T17:18:17.866Z,95236.91
2023-05-07T17:22:00.595Z,95246.50
2023-05-07T17:25:46.435Z,95246.22
2023-05-07T17:29:30.892Z,95262.50
2023-05-07T17:33:21.669Z,95256.63
2023-05-07T17:37:05.093Z,95268.34
2023-05-07T17:40:48.466Z,95267.19
2023-05-07T17:44:31.226Z,95277.84
2023-05-07T17:48:15.312Z,95278.38
2023-05-07T17:51:58.107Z,95282.66
2023-05-07T17:55:43.571Z,95283.19
2023-05-07T17:59:26.271Z,95293.06
2023-05-07T18:03:09.041Z,95290.66
2023-05-07T18:06:53.176Z,95299.19
2023-05-07T18:10:35.876Z,95295.97
2023-05-07T18:14:18.503Z,95298.66
2023-05-07T18:18:01.301Z,95302.06
2023-05-07T18:21:44.709Z,95295.91
2023-05-07T18:25:28.705Z,95305.50
2023-05-07T18:29:11.387Z,95311.34
2023-05-07T18:32:54.072Z,95307.59
2023-05-07T18:36:36.949Z,95313.44
2023-05-07T18:40:21.022Z,95317.16
2023-05-07T18:44:05.222Z,95326.22
2023-05-07T18:47:48.436Z,95334.19
2023-05-07T18:51:31.249Z,95333.09
2023-05-07T18:55:13.888Z,95338.94
2023-05-07T18:58:56.553Z,95342.38
2023-05-07T19:02:40.712Z,95335.13
2023-05-07T19:06:23.397Z,95341.78
2023-05-07T19:10:07.080Z,95340.44
2023-05-07T19:13:49.839Z,95349.72
2023-05-07T19:17:32.537Z,95357.19
2023-05-07T19:21:16.581Z,95360.09
2023-05-07T19:24:59.336Z,95356.88
2023-05-07T19:28:45.263Z,95360.63
2023-05-07T19:32:31.044Z,95369.66
2023-05-07T19:36:13.788Z,95373.09
2023-05-07T19:39:57.897Z,95372.28
2023-05-07T19:43:41.060Z,95381.84
2023-05-07T19:47:24.032Z,95388.78
2023-05-07T19:51:06.770Z,95386.63
2023-05-07T19:54:49.467Z,95389.81
2023-05-07T19:58:33.763Z,95395.63
2023-05-07T20:02:16.551Z,95396.94
2023-05-07T20:05:59.829Z,95412.13
2023-05-07T20:09:42.591Z,95413.44
2023-05-07T20:13:26.827Z,95407.81
2023-05-07T20:17:11.213Z,95416.78
2023-05-07T20:20:53.821Z,95422.06
2023-05-07T20:24:38.985Z,95422.47
2023-05-07T20:28:22.054Z,95428.81
2023-05-07T20:32:05.087Z,95428.75
2023-05-07T20:35:49.386Z,95441.09
2023-05-07T20:39:32.057Z,95440.94
2023-05-07T20:43:14.773Z,95436.03
2023-05-07T20:46:57.493Z,95431.81
2023-05-07T20:50:40.183Z,95434.00
2023-05-07T20:54:24.227Z,95436.66
2023-05-07T20:58:06.910Z,95442.78
2023-05-07T21:01:49.617Z,95448.59
2023-05-07T21:05:32.408Z,95447.78
2023-05-07T21:09:15.409Z,95458.69
2023-05-07T21:12:59.561Z,95452.00
2023-05-07T21:16:43.209Z,95450.63
2023-05-07T21:20:26.144Z,95453.53
2023-05-07T21:24:09.521Z,95459.09
2023-05-07T21:27:53.201Z,95465.47
2023-05-07T21:31:37.435Z,95467.81
2023-05-07T21:35:20.274Z,95471.53
2023-05-07T21:39:03.503Z,95487.13
2023-05-07T21:42:46.653Z,95482.28
2023-05-07T21:46:29.503Z,95474.25
2023-05-07T21:50:13.915Z,95479.00
2023-05-07T21:53:57.183Z,95487.72
2023-05-07T21:57:41.977Z,95495.38
2023-05-07T22:01:29.538Z,95497.94
2023-05-07T22:05:13.749Z,95493.91
2023-05-07T22:08:56.516Z,95500.16
2023-05-07T22:12:39.540Z,95504.34
2023-05-07T22:16:22.713Z,95505.31
2023-05-07T22:20:06.504Z,95511.13
2023-05-07T22:23:50.559Z,95510.78
2023-05-07T22:27:33.279Z,95517.88
2023-05-07T22:31:15.984Z,95522.53
2023-05-07T22:34:58.725Z,95517.69
2023-05-07T22:38:41.525Z,95524.28
2023-05-07T22:42:25.663Z,95542.00
2023-05-07T22:46:08.669Z,95538.78
2023-05-07T22:49:51.570Z,95531.84
2023-05-07T22:53:34.233Z,95528.72
2023-05-07T22:57:16.871Z,95525.00
2023-05-07T23:01:00.971Z,95530.00
2023-05-07T23:04:43.633Z,95536.50
2023-05-07T23:08:26.303Z,95537.41
2023-05-07T23:12:09.647Z,95531.53
2023-05-07T23:15:52.329Z,95529.22
2023-05-07T23:19:37.040Z,95527.97
2023-05-07T23:23:19.730Z,95528.53
2023-05-07T23:27:05.511Z,95533.84
2023-05-07T23:30:48.256Z,95526.34
2023-05-07T23:34:31.170Z,95526.78
2023-05-07T23:38:15.168Z,95527.25
2023-05-07T23:41:57.959Z,95521.38
2023-05-07T23:45:40.719Z,95527.75
2023-05-07T23:49:23.459Z,95526.94
2023-05-07T23:53:06.118Z,95531.88
2023-05-07T23:56:50.238Z,95530.75
